sensor_id;sensor_type;location;lat;lon;timestamp;temperature;humidity
45409;DHT22;31162;51.076;3.784;2022-11-13T00:01:59;7.60;99.90
45409;DHT22;31162;51.076;3.784;2022-11-13T00:04:24;7.60;99.90
45409;DHT22;31162;51.076;3.784;2022-11-13T00:06:50;7.70;99.90
45409;DHT22;31162;51.076;3.784;2022-11-13T00:09:16;7.70;99.90
45409;DHT22;31162;51.076;3.784;2022-11-13T00:11:41;7.70;99.90
45409;DHT22;31162;51.076;3.784;2022-11-13T00:14:07;7.70;99.90
45409;DHT22;31162;51.076;3.784;2022-11-13T00:16:32;7.70;99.90
45409;DHT22;31162;51.076;3.784;2022-11-13T00:18:58;7.60;99.90
45409;DHT22;31162;51.076;3.784;2022-11-13T00:21:24;7.70;99.90
45409;DHT22;31162;51.076;3.784;2022-11-13T00:23:52;7.50;99.90
45409;DHT22;31162;51.076;3.784;2022-11-13T00:26:23;7.50;99.90
45409;DHT22;31162;51.076;3.784;2022-11-13T00:28:56;7.50;99.90
45409;DHT22;31162;51.076;3.784;2022-11-13T00:31:22;7.60;99.90
45409;DHT22;31162;51.076;3.784;2022-11-13T00:33:48;7.60;99.90
45409;DHT22;31162;51.076;3.784;2022-11-13T00:36:17;7.40;99.90
45409;DHT22;31162;51.076;3.784;2022-11-13T00:38:44;7.30;99.90
45409;DHT22;31162;51.076;3.784;2022-11-13T00:41:09;7.30;99.90
45409;DHT22;31162;51.076;3.784;2022-11-13T00:43:35;7.40;99.90
45409;DHT22;31162;51.076;3.784;2022-11-13T00:46:01;7.30;99.90
45409;DHT22;31162;51.076;3.784;2022-11-13T00:48:27;7.30;99.90
45409;DHT22;31162;51.076;3.784;2022-11-13T00:50:53;7.30;99.90
45409;DHT22;31162;51.076;3.784;2022-11-13T00:53:19;7.30;99.90
45409;DHT22;31162;51.076;3.784;2022-11-13T00:55:45;7.20;99.90
45409;DHT22;31162;51.076;3.784;2022-11-13T00:58:11;7.20;99.90
45409;DHT22;31162;51.076;3.784;2022-11-13T01:00:37;7.20;99.90
45409;DHT22;31162;51.076;3.784;2022-11-13T01:03:03;7.20;99.90
45409;DHT22;31162;51.076;3.784;2022-11-13T01:05:29;7.20;99.90
45409;DHT22;31162;51.076;3.784;2022-11-13T01:07:55;7.20;99.90
45409;DHT22;31162;51.076;3.784;2022-11-13T01:10:21;7.20;99.90
45409;DHT22;31162;51.076;3.784;2022-11-13T01:12:46;7.30;99.90
45409;DHT22;31162;51.076;3.784;2022-11-13T01:15:12;7.40;99.90
45409;DHT22;31162;51.076;3.784;2022-11-13T01:17:38;7.50;99.90
45409;DHT22;31162;51.076;3.784;2022-11-13T01:20:05;7.40;99.90
45409;DHT22;31162;51.076;3.784;2022-11-13T01:22:30;7.20;99.90
45409;DHT22;31162;51.076;3.784;2022-11-13T01:24:56;7.10;99.90
45409;DHT22;31162;51.076;3.784;2022-11-13T01:27:22;7.10;99.90
45409;DHT22;31162;51.076;3.784;2022-11-13T01:29:48;7.20;99.90
45409;DHT22;31162;51.076;3.784;2022-11-13T01:32:13;7.10;99.90
45409;DHT22;31162;51.076;3.784;2022-11-13T01:34:39;6.90;99.90
45409;DHT22;31162;51.076;3.784;2022-11-13T01:37:04;7.00;99.90
45409;DHT22;31162;51.076;3.784;2022-11-13T01:39:30;6.90;99.90
45409;DHT22;31162;51.076;3.784;2022-11-13T01:41:56;6.90;99.90
45409;DHT22;31162;51.076;3.784;2022-11-13T01:44:22;6.90;99.90
45409;DHT22;31162;51.076;3.784;2022-11-13T01:46:53;6.90;99.90
45409;DHT22;31162;51.076;3.784;2022-11-13T01:49:29;6.90;99.90
45409;DHT22;31162;51.076;3.784;2022-11-13T01:52:12;6.90;99.90
45409;DHT22;31162;51.076;3.784;2022-11-13T01:54:47;6.80;99.90
45409;DHT22;31162;51.076;3.784;2022-11-13T01:57:15;6.80;99.90
45409;DHT22;31162;51.076;3.784;2022-11-13T01:59:49;6.70;99.90
45409;DHT22;31162;51.076;3.784;2022-11-13T02:02:16;6.70;99.90
45409;DHT22;31162;51.076;3.784;2022-11-13T02:04:41;6.80;99.90
45409;DHT22;31162;51.076;3.784;2022-11-13T02:07:10;6.70;99.90
45409;DHT22;31162;51.076;3.784;2022-11-13T02:09:39;6.70;99.90
45409;DHT22;31162;51.076;3.784;2022-11-13T02:12:07;6.70;99.90
45409;DHT22;31162;51.076;3.784;2022-11-13T02:14:35;6.80;99.90
45409;DHT22;31162;51.076;3.784;2022-11-13T02:17:05;6.90;99.90
45409;DHT22;31162;51.076;3.784;2022-11-13T02:19:38;6.80;99.90
45409;DHT22;31162;51.076;3.784;2022-11-13T02:25:00;6.80;99.90
45409;DHT22;31162;51.076;3.784;2022-11-13T02:30:17;6.90;99.90
45409;DHT22;31162;51.076;3.784;2022-11-13T02:32:44;6.90;99.90
45409;DHT22;31162;51.076;3.784;2022-11-13T02:35:16;7.00;99.90
45409;DHT22;31162;51.076;3.784;2022-11-13T02:37:42;7.00;99.90
45409;DHT22;31162;51.076;3.784;2022-11-13T02:40:08;7.00;99.90
45409;DHT22;31162;51.076;3.784;2022-11-13T02:42:33;7.10;99.90
45409;DHT22;31162;51.076;3.784;2022-11-13T02:44:59;7.10;99.90
45409;DHT22;31162;51.076;3.784;2022-11-13T02:47:25;7.10;99.90
45409;DHT22;31162;51.076;3.784;2022-11-13T02:49:51;7.20;99.90
45409;DHT22;31162;51.076;3.784;2022-11-13T02:52:16;7.20;99.90
45409;DHT22;31162;51.076;3.784;2022-11-13T02:54:42;7.20;99.90
45409;DHT22;31162;51.076;3.784;2022-11-13T02:57:08;7.20;99.90
45409;DHT22;31162;51.076;3.784;2022-11-13T02:59:33;7.20;99.90
45409;DHT22;31162;51.076;3.784;2022-11-13T03:01:59;7.10;99.90
45409;DHT22;31162;51.076;3.784;2022-11-13T03:04:24;7.10;99.90
45409;DHT22;31162;51.076;3.784;2022-11-13T03:06:50;7.00;99.90
45409;DHT22;31162;51.076;3.784;2022-11-13T03:09:16;6.90;99.90
45409;DHT22;31162;51.076;3.784;2022-11-13T03:11:44;6.90;99.90
45409;DHT22;31162;51.076;3.784;2022-11-13T03:14:10;6.80;99.90
45409;DHT22;31162;51.076;3.784;2022-11-13T03:16:36;6.80;99.90
45409;DHT22;31162;51.076;3.784;2022-11-13T03:19:02;6.90;99.90
45409;DHT22;31162;51.076;3.784;2022-11-13T03:21:29;6.90;99.90
45409;DHT22;31162;51.076;3.784;2022-11-13T03:23:55;6.90;99.90
45409;DHT22;31162;51.076;3.784;2022-11-13T03:26:21;6.80;99.90
45409;DHT22;31162;51.076;3.784;2022-11-13T03:28:46;6.80;99.90
45409;DHT22;31162;51.076;3.784;2022-11-13T03:31:12;6.60;99.90
45409;DHT22;31162;51.076;3.784;2022-11-13T03:33:38;6.50;99.90
45409;DHT22;31162;51.076;3.784;2022-11-13T03:36:04;6.60;99.90
45409;DHT22;31162;51.076;3.784;2022-11-13T03:38:30;6.50;99.90
45409;DHT22;31162;51.076;3.784;2022-11-13T03:40:56;6.40;99.90
45409;DHT22;31162;51.076;3.784;2022-11-13T03:43:22;6.40;99.90
45409;DHT22;31162;51.076;3.784;2022-11-13T03:45:47;6.40;99.90
45409;DHT22;31162;51.076;3.784;2022-11-13T03:48:14;6.40;99.90
45409;DHT22;31162;51.076;3.784;2022-11-13T03:50:43;6.50;99.90
45409;DHT22;31162;51.076;3.784;2022-11-13T03:53:08;6.40;99.90
45409;DHT22;31162;51.076;3.784;2022-11-13T03:55:34;6.40;99.90
45409;DHT22;31162;51.076;3.784;2022-11-13T03:58:00;6.30;99.90
45409;DHT22;31162;51.076;3.784;2022-11-13T04:00:25;6.40;99.90
45409;DHT22;31162;51.076;3.784;2022-11-13T04:02:51;6.40;99.90
45409;DHT22;31162;51.076;3.784;2022-11-13T04:05:17;6.40;99.90
45409;DHT22;31162;51.076;3.784;2022-11-13T04:07:42;6.40;99.90
45409;DHT22;31162;51.076;3.784;2022-11-13T04:10:08;6.20;99.90
45409;DHT22;31162;51.076;3.784;2022-11-13T04:12:34;6.20;99.90
45409;DHT22;31162;51.076;3.784;2022-11-13T04:14:59;6.20;99.90
45409;DHT22;31162;51.076;3.784;2022-11-13T04:17:25;6.20;99.90
45409;DHT22;31162;51.076;3.784;2022-11-13T04:19:51;6.30;99.90
45409;DHT22;31162;51.076;3.784;2022-11-13T04:22:16;6.20;99.90
45409;DHT22;31162;51.076;3.784;2022-11-13T04:24:42;6.20;99.90
45409;DHT22;31162;51.076;3.784;2022-11-13T04:27:07;6.20;99.90
45409;DHT22;31162;51.076;3.784;2022-11-13T04:29:33;6.30;99.90
45409;DHT22;31162;51.076;3.784;2022-11-13T04:31:58;6.40;99.90
45409;DHT22;31162;51.076;3.784;2022-11-13T04:34:24;6.40;99.90
45409;DHT22;31162;51.076;3.784;2022-11-13T04:36:50;6.40;99.90
45409;DHT22;31162;51.076;3.784;2022-11-13T04:39:16;6.50;99.90
45409;DHT22;31162;51.076;3.784;2022-11-13T04:41:41;6.40;99.90
45409;DHT22;31162;51.076;3.784;2022-11-13T04:44:25;6.50;99.90
45409;DHT22;31162;51.076;3.784;2022-11-13T04:46:51;6.50;99.90
45409;DHT22;31162;51.076;3.784;2022-11-13T04:49:17;6.50;99.90
45409;DHT22;31162;51.076;3.784;2022-11-13T04:51:42;6.50;99.90
45409;DHT22;31162;51.076;3.784;2022-11-13T04:54:08;6.40;99.90
45409;DHT22;31162;51.076;3.784;2022-11-13T04:56:33;6.40;99.90
45409;DHT22;31162;51.076;3.784;2022-11-13T04:58:59;6.40;99.90
45409;DHT22;31162;51.076;3.784;2022-11-13T05:01:25;6.30;99.90
45409;DHT22;31162;51.076;3.784;2022-11-13T05:03:50;6.30;99.90
45409;DHT22;31162;51.076;3.784;2022-11-13T05:06:16;6.30;99.90
45409;DHT22;31162;51.076;3.784;2022-11-13T05:08:41;6.30;99.90
45409;DHT22;31162;51.076;3.784;2022-11-13T05:11:07;6.40;99.90
45409;DHT22;31162;51.076;3.784;2022-11-13T05:13:34;6.40;99.90
45409;DHT22;31162;51.076;3.784;2022-11-13T05:16:08;6.30;99.90
45409;DHT22;31162;51.076;3.784;2022-11-13T05:18:36;6.40;99.90
45409;DHT22;31162;51.076;3.784;2022-11-13T05:21:03;6.50;99.90
45409;DHT22;31162;51.076;3.784;2022-11-13T05:23:29;6.40;99.90
45409;DHT22;31162;51.076;3.784;2022-11-13T05:26:03;6.40;99.90
45409;DHT22;31162;51.076;3.784;2022-11-13T05:28:28;6.30;99.90
45409;DHT22;31162;51.076;3.784;2022-11-13T05:31:05;6.30;99.90
45409;DHT22;31162;51.076;3.784;2022-11-13T05:33:31;6.30;99.90
45409;DHT22;31162;51.076;3.784;2022-11-13T05:36:04;6.60;99.90
45409;DHT22;31162;51.076;3.784;2022-11-13T05:38:31;6.10;99.90
45409;DHT22;31162;51.076;3.784;2022-11-13T05:41:05;6.30;99.90
45409;DHT22;31162;51.076;3.784;2022-11-13T05:43:31;6.50;99.90
45409;DHT22;31162;51.076;3.784;2022-11-13T05:48:26;6.50;99.90
45409;DHT22;31162;51.076;3.784;2022-11-13T05:50:52;6.60;99.90
45409;DHT22;31162;51.076;3.784;2022-11-13T05:53:18;6.50;99.90
45409;DHT22;31162;51.076;3.784;2022-11-13T05:55:43;6.60;99.90
45409;DHT22;31162;51.076;3.784;2022-11-13T05:58:09;6.60;99.90
45409;DHT22;31162;51.076;3.784;2022-11-13T06:00:36;6.50;99.90
45409;DHT22;31162;51.076;3.784;2022-11-13T06:03:02;6.60;99.90
45409;DHT22;31162;51.076;3.784;2022-11-13T06:05:27;6.70;99.90
45409;DHT22;31162;51.076;3.784;2022-11-13T06:07:53;6.70;99.90
45409;DHT22;31162;51.076;3.784;2022-11-13T06:10:18;6.70;99.90
45409;DHT22;31162;51.076;3.784;2022-11-13T06:12:44;6.70;99.90
45409;DHT22;31162;51.076;3.784;2022-11-13T06:15:10;6.70;99.90
45409;DHT22;31162;51.076;3.784;2022-11-13T06:17:35;6.80;99.90
45409;DHT22;31162;51.076;3.784;2022-11-13T06:20:01;6.60;99.90
45409;DHT22;31162;51.076;3.784;2022-11-13T06:22:26;6.50;99.90
45409;DHT22;31162;51.076;3.784;2022-11-13T06:24:52;6.50;99.90
45409;DHT22;31162;51.076;3.784;2022-11-13T06:27:17;6.40;99.90
45409;DHT22;31162;51.076;3.784;2022-11-13T06:29:43;6.20;99.90
45409;DHT22;31162;51.076;3.784;2022-11-13T06:32:09;6.10;99.90
45409;DHT22;31162;51.076;3.784;2022-11-13T06:34:35;6.20;99.90
45409;DHT22;31162;51.076;3.784;2022-11-13T06:37:00;6.40;99.90
45409;DHT22;31162;51.076;3.784;2022-11-13T06:39:26;6.40;99.90
45409;DHT22;31162;51.076;3.784;2022-11-13T06:41:52;6.30;99.90
45409;DHT22;31162;51.076;3.784;2022-11-13T06:44:17;6.40;99.90
45409;DHT22;31162;51.076;3.784;2022-11-13T06:46:43;6.40;99.90
45409;DHT22;31162;51.076;3.784;2022-11-13T06:49:08;6.30;99.90
45409;DHT22;31162;51.076;3.784;2022-11-13T06:51:34;6.50;99.90
45409;DHT22;31162;51.076;3.784;2022-11-13T06:54:00;6.50;99.90
45409;DHT22;31162;51.076;3.784;2022-11-13T06:56:25;6.40;99.90
45409;DHT22;31162;51.076;3.784;2022-11-13T06:58:52;6.60;99.90
45409;DHT22;31162;51.076;3.784;2022-11-13T07:01:21;6.50;99.90
45409;DHT22;31162;51.076;3.784;2022-11-13T07:03:47;6.60;99.90
45409;DHT22;31162;51.076;3.784;2022-11-13T07:06:16;6.60;99.90
45409;DHT22;31162;51.076;3.784;2022-11-13T07:08:42;6.60;99.90
45409;DHT22;31162;51.076;3.784;2022-11-13T07:11:15;6.70;99.90
45409;DHT22;31162;51.076;3.784;2022-11-13T07:13:41;6.70;99.90
45409;DHT22;31162;51.076;3.784;2022-11-13T07:16:08;6.70;99.90
45409;DHT22;31162;51.076;3.784;2022-11-13T07:18:34;6.80;99.90
45409;DHT22;31162;51.076;3.784;2022-11-13T07:21:05;6.90;99.90
45409;DHT22;31162;51.076;3.784;2022-11-13T07:23:32;7.00;99.90
45409;DHT22;31162;51.076;3.784;2022-11-13T07:25:58;7.10;99.90
45409;DHT22;31162;51.076;3.784;2022-11-13T07:28:23;7.10;99.90
45409;DHT22;31162;51.076;3.784;2022-11-13T07:30:49;7.10;99.90
45409;DHT22;31162;51.076;3.784;2022-11-13T07:33:15;7.20;99.90
45409;DHT22;31162;51.076;3.784;2022-11-13T07:35:41;7.20;99.90
45409;DHT22;31162;51.076;3.784;2022-11-13T07:38:07;7.40;99.90
45409;DHT22;31162;51.076;3.784;2022-11-13T07:40:33;7.10;99.90
45409;DHT22;31162;51.076;3.784;2022-11-13T07:43:00;7.20;99.90
45409;DHT22;31162;51.076;3.784;2022-11-13T07:45:26;7.30;99.90
45409;DHT22;31162;51.076;3.784;2022-11-13T07:47:57;7.40;99.90
45409;DHT22;31162;51.076;3.784;2022-11-13T07:50:23;7.40;99.90
45409;DHT22;31162;51.076;3.784;2022-11-13T07:52:57;7.50;99.90
45409;DHT22;31162;51.076;3.784;2022-11-13T07:55:23;7.60;99.90
45409;DHT22;31162;51.076;3.784;2022-11-13T07:57:49;7.70;99.90
45409;DHT22;31162;51.076;3.784;2022-11-13T08:00:15;7.80;99.90
45409;DHT22;31162;51.076;3.784;2022-11-13T08:02:40;7.90;99.90
45409;DHT22;31162;51.076;3.784;2022-11-13T08:05:06;8.10;99.90
45409;DHT22;31162;51.076;3.784;2022-11-13T08:07:32;8.10;99.90
45409;DHT22;31162;51.076;3.784;2022-11-13T08:09:58;8.20;99.90
45409;DHT22;31162;51.076;3.784;2022-11-13T08:12:24;8.30;99.90
45409;DHT22;31162;51.076;3.784;2022-11-13T08:14:49;8.20;99.90
45409;DHT22;31162;51.076;3.784;2022-11-13T08:17:15;8.00;99.90
45409;DHT22;31162;51.076;3.784;2022-11-13T08:19:40;8.00;99.90
45409;DHT22;31162;51.076;3.784;2022-11-13T08:22:06;8.20;99.90
45409;DHT22;31162;51.076;3.784;2022-11-13T08:24:32;8.40;99.90
45409;DHT22;31162;51.076;3.784;2022-11-13T08:26:57;8.50;99.90
45409;DHT22;31162;51.076;3.784;2022-11-13T08:29:23;8.60;99.90
45409;DHT22;31162;51.076;3.784;2022-11-13T08:31:49;8.70;99.90
45409;DHT22;31162;51.076;3.784;2022-11-13T08:34:14;8.80;99.90
45409;DHT22;31162;51.076;3.784;2022-11-13T08:36:40;8.60;99.90
45409;DHT22;31162;51.076;3.784;2022-11-13T08:39:07;8.60;99.90
45409;DHT22;31162;51.076;3.784;2022-11-13T08:41:32;8.70;99.90
45409;DHT22;31162;51.076;3.784;2022-11-13T08:43:58;8.90;99.90
45409;DHT22;31162;51.076;3.784;2022-11-13T08:46:23;9.00;99.90
45409;DHT22;31162;51.076;3.784;2022-11-13T08:48:49;9.10;99.90
45409;DHT22;31162;51.076;3.784;2022-11-13T08:51:15;9.20;99.90
45409;DHT22;31162;51.076;3.784;2022-11-13T08:53:40;9.40;99.90
45409;DHT22;31162;51.076;3.784;2022-11-13T08:56:06;9.60;99.90
45409;DHT22;31162;51.076;3.784;2022-11-13T08:58:31;9.60;99.90
45409;DHT22;31162;51.076;3.784;2022-11-13T09:01:01;9.60;99.90
45409;DHT22;31162;51.076;3.784;2022-11-13T09:03:27;9.80;99.90
45409;DHT22;31162;51.076;3.784;2022-11-13T09:05:53;9.80;99.90
45409;DHT22;31162;51.076;3.784;2022-11-13T09:08:18;9.80;99.90
45409;DHT22;31162;51.076;3.784;2022-11-13T09:10:44;9.60;99.90
45409;DHT22;31162;51.076;3.784;2022-11-13T09:13:10;9.20;99.90
45409;DHT22;31162;51.076;3.784;2022-11-13T09:15:37;9.40;99.90
45409;DHT22;31162;51.076;3.784;2022-11-13T09:18:04;9.60;99.90
45409;DHT22;31162;51.076;3.784;2022-11-13T09:20:31;9.80;99.90
45409;DHT22;31162;51.076;3.784;2022-11-13T09:23:03;9.90;99.90
45409;DHT22;31162;51.076;3.784;2022-11-13T09:25:30;10.20;99.90
45409;DHT22;31162;51.076;3.784;2022-11-13T09:27:57;10.40;99.90
45409;DHT22;31162;51.076;3.784;2022-11-13T09:30:24;10.50;99.90
45409;DHT22;31162;51.076;3.784;2022-11-13T09:32:55;10.60;99.90
45409;DHT22;31162;51.076;3.784;2022-11-13T09:35:22;10.90;99.90
45409;DHT22;31162;51.076;3.784;2022-11-13T09:38:14;11.30;99.90
45409;DHT22;31162;51.076;3.784;2022-11-13T09:40:45;11.40;99.90
45409;DHT22;31162;51.076;3.784;2022-11-13T09:43:51;11.50;99.90
45409;DHT22;31162;51.076;3.784;2022-11-13T09:46:39;11.60;99.90
45409;DHT22;31162;51.076;3.784;2022-11-13T09:49:14;11.30;99.90
45409;DHT22;31162;51.076;3.784;2022-11-13T09:51:44;11.10;99.90
45409;DHT22;31162;51.076;3.784;2022-11-13T09:54:13;10.80;99.90
45409;DHT22;31162;51.076;3.784;2022-11-13T09:56:41;10.40;99.90
45409;DHT22;31162;51.076;3.784;2022-11-13T09:59:28;9.60;99.90
45409;DHT22;31162;51.076;3.784;2022-11-13T10:02:20;9.40;99.90
45409;DHT22;31162;51.076;3.784;2022-11-13T10:13:46;10.40;99.90
45409;DHT22;31162;51.076;3.784;2022-11-13T10:16:35;11.50;99.90
45409;DHT22;31162;51.076;3.784;2022-11-13T10:22:11;12.40;99.90
45409;DHT22;31162;51.076;3.784;2022-11-13T10:24:43;12.90;99.90
45409;DHT22;31162;51.076;3.784;2022-11-13T10:27:11;13.50;99.90
45409;DHT22;31162;51.076;3.784;2022-11-13T10:29:38;13.80;99.90
45409;DHT22;31162;51.076;3.784;2022-11-13T10:32:22;12.90;99.90
45409;DHT22;31162;51.076;3.784;2022-11-13T10:38:10;14.50;99.90
45409;DHT22;31162;51.076;3.784;2022-11-13T10:40:40;14.30;99.90
45409;DHT22;31162;51.076;3.784;2022-11-13T10:45:42;14.40;99.90
45409;DHT22;31162;51.076;3.784;2022-11-13T10:48:32;14.60;99.90
45409;DHT22;31162;51.076;3.784;2022-11-13T10:51:03;14.90;99.90
45409;DHT22;31162;51.076;3.784;2022-11-13T10:53:48;15.30;99.90
45409;DHT22;31162;51.076;3.784;2022-11-13T10:56:28;15.40;99.90
45409;DHT22;31162;51.076;3.784;2022-11-13T10:59:15;14.70;99.90
45409;DHT22;31162;51.076;3.784;2022-11-13T11:01:42;14.40;99.90
45409;DHT22;31162;51.076;3.784;2022-11-13T11:04:18;15.10;99.90
45409;DHT22;31162;51.076;3.784;2022-11-13T11:06:44;14.90;99.90
45409;DHT22;31162;51.076;3.784;2022-11-13T11:09:22;15.10;99.90
45409;DHT22;31162;51.076;3.784;2022-11-13T11:17:31;15.90;99.90
45409;DHT22;31162;51.076;3.784;2022-11-13T11:22:33;17.10;99.90
45409;DHT22;31162;51.076;3.784;2022-11-13T11:25:35;17.30;99.90
45409;DHT22;31162;51.076;3.784;2022-11-13T11:30:42;17.70;99.90
45409;DHT22;31162;51.076;3.784;2022-11-13T11:35:46;18.70;99.90
45409;DHT22;31162;51.076;3.784;2022-11-13T11:38:25;19.10;99.90
45409;DHT22;31162;51.076;3.784;2022-11-13T11:40:56;19.60;99.90
45409;DHT22;31162;51.076;3.784;2022-11-13T11:46:01;18.50;99.90
45409;DHT22;31162;51.076;3.784;2022-11-13T11:48:29;18.50;99.90
45409;DHT22;31162;51.076;3.784;2022-11-13T11:51:28;17.60;99.90
45409;DHT22;31162;51.076;3.784;2022-11-13T11:54:14;16.60;99.90
45409;DHT22;31162;51.076;3.784;2022-11-13T11:56:51;16.70;99.90
45409;DHT22;31162;51.076;3.784;2022-11-13T12:12:43;15.30;99.90
45409;DHT22;31162;51.076;3.784;2022-11-13T12:18:37;15.50;99.90
45409;DHT22;31162;51.076;3.784;2022-11-13T12:30:06;14.30;99.90
45409;DHT22;31162;51.076;3.784;2022-11-13T12:33:02;14.40;99.90
45409;DHT22;31162;51.076;3.784;2022-11-13T12:35:30;14.30;99.90
45409;DHT22;31162;51.076;3.784;2022-11-13T12:40:38;13.80;99.90
45409;DHT22;31162;51.076;3.784;2022-11-13T12:46:11;13.50;99.90
45409;DHT22;31162;51.076;3.784;2022-11-13T12:48:41;13.40;99.90
45409;DHT22;31162;51.076;3.784;2022-11-13T12:51:12;13.40;99.90
45409;DHT22;31162;51.076;3.784;2022-11-13T12:53:54;13.50;99.90
45409;DHT22;31162;51.076;3.784;2022-11-13T12:58:55;13.60;99.90
45409;DHT22;31162;51.076;3.784;2022-11-13T13:01:22;13.60;99.90
45409;DHT22;31162;51.076;3.784;2022-11-13T13:06:39;13.70;99.90
45409;DHT22;31162;51.076;3.784;2022-11-13T13:12:31;13.90;99.90
45409;DHT22;31162;51.076;3.784;2022-11-13T13:17:45;13.90;99.90
45409;DHT22;31162;51.076;3.784;2022-11-13T13:22:55;13.80;99.90
45409;DHT22;31162;51.076;3.784;2022-11-13T13:25:30;13.90;99.90
45409;DHT22;31162;51.076;3.784;2022-11-13T13:28:19;13.80;99.90
45409;DHT22;31162;51.076;3.784;2022-11-13T13:35:56;13.80;99.90
45409;DHT22;31162;51.076;3.784;2022-11-13T13:38:38;13.80;99.90
45409;DHT22;31162;51.076;3.784;2022-11-13T13:41:22;14.00;99.90
45409;DHT22;31162;51.076;3.784;2022-11-13T13:44:02;14.00;99.90
45409;DHT22;31162;51.076;3.784;2022-11-13T13:46:33;14.10;99.90
45409;DHT22;31162;51.076;3.784;2022-11-13T13:49:05;14.20;99.90
45409;DHT22;31162;51.076;3.784;2022-11-13T13:51:40;14.30;99.90
45409;DHT22;31162;51.076;3.784;2022-11-13T13:54:07;14.30;99.90
45409;DHT22;31162;51.076;3.784;2022-11-13T13:56:39;14.40;99.90
45409;DHT22;31162;51.076;3.784;2022-11-13T13:59:17;14.20;99.90
45409;DHT22;31162;51.076;3.784;2022-11-13T14:01:56;14.10;99.90
45409;DHT22;31162;51.076;3.784;2022-11-13T14:04:24;14.10;99.90
45409;DHT22;31162;51.076;3.784;2022-11-13T14:06:57;14.20;99.90
45409;DHT22;31162;51.076;3.784;2022-11-13T14:09:27;14.20;99.90
45409;DHT22;31162;51.076;3.784;2022-11-13T14:12:02;14.20;99.90
45409;DHT22;31162;51.076;3.784;2022-11-13T14:14:28;14.00;99.90
45409;DHT22;31162;51.076;3.784;2022-11-13T14:16:56;14.00;99.90
45409;DHT22;31162;51.076;3.784;2022-11-13T14:19:23;14.00;99.90
45409;DHT22;31162;51.076;3.784;2022-11-13T14:21:56;13.90;99.90
45409;DHT22;31162;51.076;3.784;2022-11-13T14:24:25;14.00;99.90
45409;DHT22;31162;51.076;3.784;2022-11-13T14:26:53;13.90;99.90
45409;DHT22;31162;51.076;3.784;2022-11-13T14:29:36;13.80;99.90
45409;DHT22;31162;51.076;3.784;2022-11-13T14:32:15;13.90;99.90
45409;DHT22;31162;51.076;3.784;2022-11-13T14:34:46;14.00;99.90
45409;DHT22;31162;51.076;3.784;2022-11-13T14:39:48;14.00;99.90
45409;DHT22;31162;51.076;3.784;2022-11-13T14:42:21;13.80;99.90
45409;DHT22;31162;51.076;3.784;2022-11-13T14:44:48;13.80;99.90
45409;DHT22;31162;51.076;3.784;2022-11-13T14:47:28;13.90;99.90
45409;DHT22;31162;51.076;3.784;2022-11-13T14:50:23;14.00;99.90
45409;DHT22;31162;51.076;3.784;2022-11-13T14:53:24;13.70;99.90
45409;DHT22;31162;51.076;3.784;2022-11-13T14:55:52;13.70;99.90
45409;DHT22;31162;51.076;3.784;2022-11-13T14:58:33;13.70;99.90
45409;DHT22;31162;51.076;3.784;2022-11-13T15:03:44;13.60;99.90
45409;DHT22;31162;51.076;3.784;2022-11-13T15:06:21;13.50;99.90
45409;DHT22;31162;51.076;3.784;2022-11-13T15:08:49;13.40;99.90
45409;DHT22;31162;51.076;3.784;2022-11-13T15:11:16;13.30;99.90
45409;DHT22;31162;51.076;3.784;2022-11-13T15:13:43;13.30;99.90
45409;DHT22;31162;51.076;3.784;2022-11-13T15:16:18;13.20;99.90
45409;DHT22;31162;51.076;3.784;2022-11-13T15:18:59;13.10;99.90
45409;DHT22;31162;51.076;3.784;2022-11-13T15:21:26;13.10;99.90
45409;DHT22;31162;51.076;3.784;2022-11-13T15:23:51;13.10;99.90
45409;DHT22;31162;51.076;3.784;2022-11-13T15:26:17;13.00;99.90
45409;DHT22;31162;51.076;3.784;2022-11-13T15:28:43;13.10;99.90
45409;DHT22;31162;51.076;3.784;2022-11-13T15:33:42;12.80;99.90
45409;DHT22;31162;51.076;3.784;2022-11-13T15:36:08;12.70;99.90
45409;DHT22;31162;51.076;3.784;2022-11-13T15:38:34;12.50;99.90
45409;DHT22;31162;51.076;3.784;2022-11-13T15:41:00;12.40;99.90
45409;DHT22;31162;51.076;3.784;2022-11-13T15:43:25;12.40;99.90
45409;DHT22;31162;51.076;3.784;2022-11-13T15:45:51;12.30;99.90
45409;DHT22;31162;51.076;3.784;2022-11-13T15:48:17;12.20;99.90
45409;DHT22;31162;51.076;3.784;2022-11-13T15:50:42;12.10;99.90
45409;DHT22;31162;51.076;3.784;2022-11-13T15:53:09;12.10;99.90
45409;DHT22;31162;51.076;3.784;2022-11-13T15:55:38;12.00;99.90
45409;DHT22;31162;51.076;3.784;2022-11-13T15:58:04;11.90;99.90
45409;DHT22;31162;51.076;3.784;2022-11-13T16:00:30;11.80;99.90
45409;DHT22;31162;51.076;3.784;2022-11-13T16:02:57;11.70;99.90
45409;DHT22;31162;51.076;3.784;2022-11-13T16:05:24;11.70;99.90
45409;DHT22;31162;51.076;3.784;2022-11-13T16:07:54;11.70;99.90
45409;DHT22;31162;51.076;3.784;2022-11-13T16:10:21;11.60;99.90
45409;DHT22;31162;51.076;3.784;2022-11-13T16:12:49;11.60;99.90
45409;DHT22;31162;51.076;3.784;2022-11-13T16:15:16;11.40;99.90
45409;DHT22;31162;51.076;3.784;2022-11-13T16:17:50;11.30;99.90
45409;DHT22;31162;51.076;3.784;2022-11-13T16:20:16;11.20;99.90
45409;DHT22;31162;51.076;3.784;2022-11-13T16:22:43;10.90;99.90
45409;DHT22;31162;51.076;3.784;2022-11-13T16:25:17;10.80;99.90
45409;DHT22;31162;51.076;3.784;2022-11-13T16:27:44;10.70;99.90
45409;DHT22;31162;51.076;3.784;2022-11-13T16:30:18;10.70;99.90
45409;DHT22;31162;51.076;3.784;2022-11-13T16:32:45;10.60;99.90
45409;DHT22;31162;51.076;3.784;2022-11-13T16:35:12;10.50;99.90
45409;DHT22;31162;51.076;3.784;2022-11-13T16:37:38;10.30;99.90
45409;DHT22;31162;51.076;3.784;2022-11-13T16:40:22;10.20;99.90
45409;DHT22;31162;51.076;3.784;2022-11-13T16:42:47;10.10;99.90
45409;DHT22;31162;51.076;3.784;2022-11-13T16:45:13;10.10;99.90
45409;DHT22;31162;51.076;3.784;2022-11-13T16:47:39;10.00;99.90
45409;DHT22;31162;51.076;3.784;2022-11-13T16:50:19;10.00;99.90
45409;DHT22;31162;51.076;3.784;2022-11-13T16:52:44;10.00;99.90
45409;DHT22;31162;51.076;3.784;2022-11-13T16:55:10;10.00;99.90
45409;DHT22;31162;51.076;3.784;2022-11-13T16:57:36;10.00;99.90
45409;DHT22;31162;51.076;3.784;2022-11-13T17:00:05;9.90;99.90
45409;DHT22;31162;51.076;3.784;2022-11-13T17:02:31;9.70;99.90
45409;DHT22;31162;51.076;3.784;2022-11-13T17:04:57;9.60;99.90
45409;DHT22;31162;51.076;3.784;2022-11-13T17:07:22;9.60;99.90
45409;DHT22;31162;51.076;3.784;2022-11-13T17:09:48;9.50;99.90
45409;DHT22;31162;51.076;3.784;2022-11-13T17:12:14;9.40;99.90
45409;DHT22;31162;51.076;3.784;2022-11-13T17:14:39;9.30;99.90
45409;DHT22;31162;51.076;3.784;2022-11-13T17:17:07;9.30;99.90
45409;DHT22;31162;51.076;3.784;2022-11-13T17:19:34;9.20;99.90
45409;DHT22;31162;51.076;3.784;2022-11-13T17:22:05;9.20;99.90
45409;DHT22;31162;51.076;3.784;2022-11-13T17:24:30;9.20;99.90
45409;DHT22;31162;51.076;3.784;2022-11-13T17:26:56;9.10;99.90
45409;DHT22;31162;51.076;3.784;2022-11-13T17:29:21;9.20;99.90
45409;DHT22;31162;51.076;3.784;2022-11-13T17:31:47;9.20;99.90